sensor_id;sensor_type;location;lat;lon;timestamp;pressure;altitude;pressure_sealevel;temperature;humidity
62948;BME280;51940;52.126;-0.994;2023-03-14T00:00:16;97718.83;;;6.19;100.00
62948;BME280;51940;52.126;-0.994;2023-03-14T00:02:41;97730.66;;;6.15;100.00
62948;BME280;51940;52.126;-0.994;2023-03-14T00:05:07;97732.29;;;6.11;100.00
62948;BME280;51940;52.126;-0.994;2023-03-14T00:07:37;97740.00;;;6.09;100.00
62948;BME280;51940;52.126;-0.994;2023-03-14T00:10:07;97739.40;;;6.07;100.00
62948;BME280;51940;52.126;-0.994;2023-03-14T00:12:33;97746.98;;;6.04;100.00
62948;BME280;51940;52.126;-0.994;2023-03-14T00:14:58;97754.36;;;6.01;100.00
62948;BME280;51940;52.126;-0.994;2023-03-14T00:17:25;97755.91;;;5.99;100.00
62948;BME280;51940;52.126;-0.994;2023-03-14T00:19:51;97759.16;;;5.97;100.00
62948;BME280;51940;52.126;-0.994;2023-03-14T00:22:19;97764.19;;;5.95;100.00
62948;BME280;51940;52.126;-0.994;2023-03-14T00:24:44;97768.19;;;5.93;100.00
62948;BME280;51940;52.126;-0.994;2023-03-14T00:27:09;97770.03;;;5.92;100.00
62948;BME280;51940;52.126;-0.994;2023-03-14T00:29:35;97773.27;;;5.91;100.00
62948;BME280;51940;52.126;-0.994;2023-03-14T00:32:00;97778.23;;;5.90;100.00
62948;BME280;51940;52.126;-0.994;2023-03-14T00:34:28;97783.23;;;5.88;100.00
62948;BME280;51940;52.126;-0.994;2023-03-14T00:36:54;97782.39;;;5.88;100.00
62948;BME280;51940;52.126;-0.994;2023-03-14T00:39:19;97783.48;;;5.87;100.00
62948;BME280;51940;52.126;-0.994;2023-03-14T00:41:44;97798.23;;;5.85;100.00
62948;BME280;51940;52.126;-0.994;2023-03-14T00:44:09;97809.98;;;5.84;100.00
62948;BME280;51940;52.126;-0.994;2023-03-14T00:46:35;97817.31;;;5.83;100.00
62948;BME280;51940;52.126;-0.994;2023-03-14T00:49:00;97826.56;;;5.81;100.00
62948;BME280;51940;52.126;-0.994;2023-03-14T00:51:25;97837.71;;;5.77;100.00
62948;BME280;51940;52.126;-0.994;2023-03-14T00:53:51;97843.56;;;5.73;100.00
62948;BME280;51940;52.126;-0.994;2023-03-14T00:56:16;97853.33;;;5.69;100.00
62948;BME280;51940;52.126;-0.994;2023-03-14T00:58:41;97859.73;;;5.63;100.00
62948;BME280;51940;52.126;-0.994;2023-03-14T01:01:11;97872.38;;;5.57;100.00
62948;BME280;51940;52.126;-0.994;2023-03-14T01:03:37;97881.61;;;5.52;100.00
62948;BME280;51940;52.126;-0.994;2023-03-14T01:06:09;97883.30;;;5.46;100.00
62948;BME280;51940;52.126;-0.994;2023-03-14T01:08:35;97893.54;;;5.39;100.00
62948;BME280;51940;52.126;-0.994;2023-03-14T01:11:04;97903.11;;;5.30;100.00
62948;BME280;51940;52.126;-0.994;2023-03-14T01:13:30;97906.42;;;5.23;100.00
62948;BME280;51940;52.126;-0.994;2023-03-14T01:15:55;97911.15;;;5.16;100.00
62948;BME280;51940;52.126;-0.994;2023-03-14T01:18:21;97922.25;;;5.07;100.00
62948;BME280;51940;52.126;-0.994;2023-03-14T01:20:46;97925.20;;;5.00;100.00
62948;BME280;51940;52.126;-0.994;2023-03-14T01:23:11;97918.60;;;4.94;100.00
62948;BME280;51940;52.126;-0.994;2023-03-14T01:25:40;97922.95;;;4.86;100.00
62948;BME280;51940;52.126;-0.994;2023-03-14T01:28:06;97928.03;;;4.79;100.00
62948;BME280;51940;52.126;-0.994;2023-03-14T01:30:31;97929.91;;;4.72;100.00
62948;BME280;51940;52.126;-0.994;2023-03-14T01:32:57;97931.06;;;4.65;100.00
62948;BME280;51940;52.126;-0.994;2023-03-14T01:35:22;97938.85;;;4.60;100.00
62948;BME280;51940;52.126;-0.994;2023-03-14T01:37:47;97951.22;;;4.55;100.00
62948;BME280;51940;52.126;-0.994;2023-03-14T01:40:12;97957.81;;;4.49;100.00
62948;BME280;51940;52.126;-0.994;2023-03-14T01:42:44;97965.82;;;4.42;100.00
62948;BME280;51940;52.126;-0.994;2023-03-14T01:47:53;97982.56;;;4.30;100.00
62948;BME280;51940;52.126;-0.994;2023-03-14T01:50:19;97989.23;;;4.25;100.00
62948;BME280;51940;52.126;-0.994;2023-03-14T01:52:46;98003.17;;;4.21;100.00
62948;BME280;51940;52.126;-0.994;2023-03-14T01:55:14;98003.31;;;4.17;100.00
62948;BME280;51940;52.126;-0.994;2023-03-14T01:57:44;98007.02;;;4.12;100.00
62948;BME280;51940;52.126;-0.994;2023-03-14T02:00:12;98008.21;;;4.08;100.00
62948;BME280;51940;52.126;-0.994;2023-03-14T02:02:41;98007.38;;;4.02;100.00
62948;BME280;51940;52.126;-0.994;2023-03-14T02:05:08;98009.78;;;3.99;100.00
62948;BME280;51940;52.126;-0.994;2023-03-14T02:07:50;98014.86;;;3.95;100.00
62948;BME280;51940;52.126;-0.994;2023-03-14T02:10:17;98020.29;;;3.91;100.00
62948;BME280;51940;52.126;-0.994;2023-03-14T02:12:44;98034.42;;;3.85;100.00
62948;BME280;51940;52.126;-0.994;2023-03-14T02:15:10;98039.70;;;3.81;100.00
62948;BME280;51940;52.126;-0.994;2023-03-14T02:17:35;98039.70;;;3.76;100.00
62948;BME280;51940;52.126;-0.994;2023-03-14T02:20:04;98046.89;;;3.72;100.00
62948;BME280;51940;52.126;-0.994;2023-03-14T02:22:33;98049.75;;;3.65;100.00
62948;BME280;51940;52.126;-0.994;2023-03-14T02:27:23;98053.77;;;3.56;100.00
62948;BME280;51940;52.126;-0.994;2023-03-14T02:32:15;98059.34;;;3.48;100.00
62948;BME280;51940;52.126;-0.994;2023-03-14T02:34:42;98066.19;;;3.43;100.00
62948;BME280;51940;52.126;-0.994;2023-03-14T02:37:08;98079.73;;;3.38;100.00
62948;BME280;51940;52.126;-0.994;2023-03-14T02:39:38;98080.96;;;3.33;100.00
62948;BME280;51940;52.126;-0.994;2023-03-14T02:42:04;98085.87;;;3.28;100.00
62948;BME280;51940;52.126;-0.994;2023-03-14T02:44:30;98092.92;;;3.23;100.00
62948;BME280;51940;52.126;-0.994;2023-03-14T02:46:55;98096.42;;;3.18;100.00
62948;BME280;51940;52.126;-0.994;2023-03-14T02:49:21;98098.68;;;3.13;100.00
62948;BME280;51940;52.126;-0.994;2023-03-14T02:51:46;98098.45;;;3.09;100.00
62948;BME280;51940;52.126;-0.994;2023-03-14T02:54:11;98107.34;;;3.06;100.00
62948;BME280;51940;52.126;-0.994;2023-03-14T02:56:37;98113.11;;;3.02;100.00
62948;BME280;51940;52.126;-0.994;2023-03-14T02:59:03;98120.39;;;3.00;100.00
62948;BME280;51940;52.126;-0.994;2023-03-14T03:01:29;98127.06;;;3.01;100.00
62948;BME280;51940;52.126;-0.994;2023-03-14T03:03:54;98137.78;;;3.02;100.00
62948;BME280;51940;52.126;-0.994;2023-03-14T03:06:19;98148.36;;;3.01;100.00
62948;BME280;51940;52.126;-0.994;2023-03-14T03:08:45;98153.11;;;3.01;100.00
62948;BME280;51940;52.126;-0.994;2023-03-14T03:11:10;98152.60;;;3.01;100.00
62948;BME280;51940;52.126;-0.994;2023-03-14T03:13:36;98154.39;;;3.00;100.00
62948;BME280;51940;52.126;-0.994;2023-03-14T03:16:01;98160.05;;;2.98;100.00
62948;BME280;51940;52.126;-0.994;2023-03-14T03:18:27;98168.33;;;2.98;100.00
62948;BME280;51940;52.126;-0.994;2023-03-14T03:20:52;98177.67;;;2.98;100.00
62948;BME280;51940;52.126;-0.994;2023-03-14T03:23:17;98182.47;;;2.96;100.00
62948;BME280;51940;52.126;-0.994;2023-03-14T03:25:47;98188.49;;;2.95;100.00
62948;BME280;51940;52.126;-0.994;2023-03-14T03:28:12;98190.84;;;2.93;100.00
62948;BME280;51940;52.126;-0.994;2023-03-14T03:30:38;98197.61;;;2.91;100.00
62948;BME280;51940;52.126;-0.994;2023-03-14T03:33:04;98198.17;;;2.89;100.00
62948;BME280;51940;52.126;-0.994;2023-03-14T03:35:29;98202.65;;;2.86;100.00
62948;BME280;51940;52.126;-0.994;2023-03-14T03:37:54;98208.05;;;2.82;100.00
62948;BME280;51940;52.126;-0.994;2023-03-14T03:40:19;98218.69;;;2.79;100.00
62948;BME280;51940;52.126;-0.994;2023-03-14T03:42:45;98226.83;;;2.78;100.00
62948;BME280;51940;52.126;-0.994;2023-03-14T03:45:10;98236.54;;;2.77;100.00
62948;BME280;51940;52.126;-0.994;2023-03-14T03:47:35;98241.66;;;2.76;100.00
62948;BME280;51940;52.126;-0.994;2023-03-14T03:50:00;98249.27;;;2.75;100.00
62948;BME280;51940;52.126;-0.994;2023-03-14T03:52:26;98250.87;;;2.74;100.00
62948;BME280;51940;52.126;-0.994;2023-03-14T03:54:51;98254.75;;;2.74;100.00
62948;BME280;51940;52.126;-0.994;2023-03-14T03:57:16;98259.46;;;2.75;100.00
62948;BME280;51940;52.126;-0.994;2023-03-14T03:59:41;98261.70;;;2.77;100.00
62948;BME280;51940;52.126;-0.994;2023-03-14T04:02:07;98266.75;;;2.79;100.00
62948;BME280;51940;52.126;-0.994;2023-03-14T04:04:32;98272.85;;;2.81;100.00
62948;BME280;51940;52.126;-0.994;2023-03-14T04:06:58;98278.44;;;2.84;100.00
62948;BME280;51940;52.126;-0.994;2023-03-14T04:09:23;98286.29;;;2.86;100.00
62948;BME280;51940;52.126;-0.994;2023-03-14T04:11:48;98288.55;;;2.87;100.00
62948;BME280;51940;52.126;-0.994;2023-03-14T04:14:13;98288.71;;;2.88;100.00
62948;BME280;51940;52.126;-0.994;2023-03-14T04:16:39;98298.58;;;2.88;100.00
62948;BME280;51940;52.126;-0.994;2023-03-14T04:19:04;98304.55;;;2.88;100.00
62948;BME280;51940;52.126;-0.994;2023-03-14T04:21:29;98312.14;;;2.87;100.00
62948;BME280;51940;52.126;-0.994;2023-03-14T04:23:55;98314.94;;;2.88;100.00
62948;BME280;51940;52.126;-0.994;2023-03-14T04:26:20;98312.98;;;2.89;100.00
62948;BME280;51940;52.126;-0.994;2023-03-14T04:28:45;98321.91;;;2.91;100.00
62948;BME280;51940;52.126;-0.994;2023-03-14T04:31:13;98323.85;;;2.91;100.00
62948;BME280;51940;52.126;-0.994;2023-03-14T04:33:39;98333.88;;;2.91;100.00
62948;BME280;51940;52.126;-0.994;2023-03-14T04:36:05;98336.70;;;2.91;100.00
62948;BME280;51940;52.126;-0.994;2023-03-14T04:38:30;98343.08;;;2.89;100.00
62948;BME280;51940;52.126;-0.994;2023-03-14T04:40:56;98345.59;;;2.87;100.00
62948;BME280;51940;52.126;-0.994;2023-03-14T04:43:22;98357.06;;;2.86;100.00
62948;BME280;51940;52.126;-0.994;2023-03-14T04:45:47;98371.36;;;2.85;100.00
62948;BME280;51940;52.126;-0.994;2023-03-14T04:48:12;98374.02;;;2.84;100.00
62948;BME280;51940;52.126;-0.994;2023-03-14T04:50:38;98384.20;;;2.85;100.00
62948;BME280;51940;52.126;-0.994;2023-03-14T04:53:03;98397.20;;;2.86;100.00
62948;BME280;51940;52.126;-0.994;2023-03-14T04:55:28;98401.18;;;2.88;100.00
62948;BME280;51940;52.126;-0.994;2023-03-14T04:57:54;98405.37;;;2.90;100.00
62948;BME280;51940;52.126;-0.994;2023-03-14T05:00:19;98406.74;;;2.92;100.00
62948;BME280;51940;52.126;-0.994;2023-03-14T05:02:44;98412.33;;;2.94;100.00
62948;BME280;51940;52.126;-0.994;2023-03-14T05:05:10;98414.42;;;2.94;100.00
62948;BME280;51940;52.126;-0.994;2023-03-14T05:07:35;98423.17;;;2.96;100.00
62948;BME280;51940;52.126;-0.994;2023-03-14T05:10:01;98433.20;;;2.96;100.00
62948;BME280;51940;52.126;-0.994;2023-03-14T05:12:26;98443.10;;;2.95;100.00
62948;BME280;51940;52.126;-0.994;2023-03-14T05:14:51;98457.25;;;2.93;100.00
62948;BME280;51940;52.126;-0.994;2023-03-14T05:17:17;98460.52;;;2.88;100.00
62948;BME280;51940;52.126;-0.994;2023-03-14T05:19:43;98466.52;;;2.80;100.00
62948;BME280;51940;52.126;-0.994;2023-03-14T05:22:09;98466.47;;;2.76;100.00
62948;BME280;51940;52.126;-0.994;2023-03-14T05:24:35;98469.36;;;2.71;100.00
62948;BME280;51940;52.126;-0.994;2023-03-14T05:27:00;98474.54;;;2.69;100.00
62948;BME280;51940;52.126;-0.994;2023-03-14T05:29:25;98482.52;;;2.67;100.00
62948;BME280;51940;52.126;-0.994;2023-03-14T05:31:50;98486.20;;;2.67;100.00
62948;BME280;51940;52.126;-0.994;2023-03-14T05:34:16;98499.22;;;2.67;100.00
62948;BME280;51940;52.126;-0.994;2023-03-14T05:36:41;98506.45;;;2.67;100.00
62948;BME280;51940;52.126;-0.994;2023-03-14T05:39:06;98515.08;;;2.67;100.00
62948;BME280;51940;52.126;-0.994;2023-03-14T05:41:31;98525.96;;;2.68;100.00
62948;BME280;51940;52.126;-0.994;2023-03-14T05:43:57;98532.27;;;2.68;100.00
62948;BME280;51940;52.126;-0.994;2023-03-14T05:46:22;98537.17;;;2.70;100.00
62948;BME280;51940;52.126;-0.994;2023-03-14T05:48:48;98548.21;;;2.71;100.00
62948;BME280;51940;52.126;-0.994;2023-03-14T05:51:14;98556.47;;;2.72;100.00
62948;BME280;51940;52.126;-0.994;2023-03-14T05:53:39;98566.16;;;2.72;100.00
62948;BME280;51940;52.126;-0.994;2023-03-14T05:56:04;98579.01;;;2.72;100.00
62948;BME280;51940;52.126;-0.994;2023-03-14T05:58:30;98586.23;;;2.71;100.00
62948;BME280;51940;52.126;-0.994;2023-03-14T06:00:55;98599.23;;;2.72;100.00
62948;BME280;51940;52.126;-0.994;2023-03-14T06:03:21;98604.20;;;2.71;100.00
62948;BME280;51940;52.126;-0.994;2023-03-14T06:05:49;98611.98;;;2.70;100.00
62948;BME280;51940;52.126;-0.994;2023-03-14T06:08:14;98621.69;;;2.69;100.00
62948;BME280;51940;52.126;-0.994;2023-03-14T06:10:40;98632.48;;;2.66;100.00
62948;BME280;51940;52.126;-0.994;2023-03-14T06:13:05;98644.77;;;2.67;100.00
62948;BME280;51940;52.126;-0.994;2023-03-14T06:15:30;98650.41;;;2.67;100.00
62948;BME280;51940;52.126;-0.994;2023-03-14T06:17:57;98656.59;;;2.67;100.00
62948;BME280;51940;52.126;-0.994;2023-03-14T06:20:23;98668.01;;;2.67;100.00
62948;BME280;51940;52.126;-0.994;2023-03-14T06:22:48;98676.14;;;2.66;100.00
62948;BME280;51940;52.126;-0.994;2023-03-14T06:25:13;98685.30;;;2.65;100.00
62948;BME280;51940;52.126;-0.994;2023-03-14T06:27:39;98694.99;;;2.63;100.00
62948;BME280;51940;52.126;-0.994;2023-03-14T06:30:04;98709.61;;;2.63;100.00
62948;BME280;51940;52.126;-0.994;2023-03-14T06:32:29;98718.96;;;2.62;100.00
62948;BME280;51940;52.126;-0.994;2023-03-14T06:34:55;98736.23;;;2.61;100.00
62948;BME280;51940;52.126;-0.994;2023-03-14T06:37:22;98744.74;;;2.58;100.00
62948;BME280;51940;52.126;-0.994;2023-03-14T06:39:47;98756.74;;;2.56;100.00
62948;BME280;51940;52.126;-0.994;2023-03-14T06:42:13;98764.08;;;2.50;100.00
62948;BME280;51940;52.126;-0.994;2023-03-14T06:44:38;98775.92;;;2.46;100.00
62948;BME280;51940;52.126;-0.994;2023-03-14T06:47:03;98783.23;;;2.40;100.00
62948;BME280;51940;52.126;-0.994;2023-03-14T06:49:28;98790.21;;;2.34;100.00
62948;BME280;51940;52.126;-0.994;2023-03-14T06:51:54;98799.64;;;2.28;100.00
62948;BME280;51940;52.126;-0.994;2023-03-14T06:54:19;98809.04;;;2.23;100.00
62948;BME280;51940;52.126;-0.994;2023-03-14T06:56:44;98825.95;;;2.20;100.00
62948;BME280;51940;52.126;-0.994;2023-03-14T06:59:09;98840.65;;;2.15;100.00
62948;BME280;51940;52.126;-0.994;2023-03-14T07:01:35;98851.42;;;2.11;100.00
62948;BME280;51940;52.126;-0.994;2023-03-14T07:04:00;98870.39;;;2.01;100.00
62948;BME280;51940;52.126;-0.994;2023-03-14T07:06:26;98873.35;;;1.91;100.00
62948;BME280;51940;52.126;-0.994;2023-03-14T07:08:54;98877.87;;;1.82;100.00
62948;BME280;51940;52.126;-0.994;2023-03-14T07:11:20;98886.55;;;1.77;100.00
62948;BME280;51940;52.126;-0.994;2023-03-14T07:13:46;98898.57;;;1.71;100.00
62948;BME280;51940;52.126;-0.994;2023-03-14T07:16:11;98901.08;;;1.67;100.00
62948;BME280;51940;52.126;-0.994;2023-03-14T07:18:36;98908.80;;;1.67;100.00
62948;BME280;51940;52.126;-0.994;2023-03-14T07:21:02;98924.61;;;1.67;100.00
62948;BME280;51940;52.126;-0.994;2023-03-14T07:23:28;98932.84;;;1.70;100.00
62948;BME280;51940;52.126;-0.994;2023-03-14T07:25:53;98945.84;;;1.72;100.00
62948;BME280;51940;52.126;-0.994;2023-03-14T07:28:18;98958.11;;;1.75;100.00
62948;BME280;51940;52.126;-0.994;2023-03-14T07:30:45;98971.75;;;1.79;100.00
62948;BME280;51940;52.126;-0.994;2023-03-14T07:33:11;98978.39;;;1.84;100.00
62948;BME280;51940;52.126;-0.994;2023-03-14T07:35:37;98988.52;;;1.89;100.00
62948;BME280;51940;52.126;-0.994;2023-03-14T07:38:03;98999.33;;;1.96;100.00
62948;BME280;51940;52.126;-0.994;2023-03-14T07:40:29;99002.05;;;2.04;100.00
62948;BME280;51940;52.126;-0.994;2023-03-14T07:42:54;99013.05;;;2.11;100.00
62948;BME280;51940;52.126;-0.994;2023-03-14T07:45:20;99023.69;;;2.18;100.00
62948;BME280;51940;52.126;-0.994;2023-03-14T07:47:45;99039.30;;;2.22;100.00
62948;BME280;51940;52.126;-0.994;2023-03-14T07:50:12;99047.38;;;2.22;100.00
62948;BME280;51940;52.126;-0.994;2023-03-14T07:52:39;99054.59;;;2.23;100.00
62948;BME280;51940;52.126;-0.994;2023-03-14T07:55:05;99058.28;;;2.23;100.00
62948;BME280;51940;52.126;-0.994;2023-03-14T07:57:32;99068.60;;;2.27;100.00
62948;BME280;51940;52.126;-0.994;2023-03-14T07:59:58;99082.46;;;2.31;100.00
62948;BME280;51940;52.126;-0.994;2023-03-14T08:02:24;99093.32;;;2.35;100.00
62948;BME280;51940;52.126;-0.994;2023-03-14T08:04:49;99104.02;;;2.37;100.00
62948;BME280;51940;52.126;-0.994;2023-03-14T08:07:15;99115.61;;;2.39;100.00
62948;BME280;51940;52.126;-0.994;2023-03-14T08:09:40;99117.02;;;2.40;100.00
62948;BME280;51940;52.126;-0.994;2023-03-14T08:12:06;99131.62;;;2.41;100.00
62948;BME280;51940;52.126;-0.994;2023-03-14T08:14:32;99134.70;;;2.45;100.00
62948;BME280;51940;52.126;-0.994;2023-03-14T08:16:57;99139.77;;;2.51;100.00
62948;BME280;51940;52.126;-0.994;2023-03-14T08:19:23;99145.83;;;2.58;100.00
62948;BME280;51940;52.126;-0.994;2023-03-14T08:21:48;99153.27;;;2.69;100.00
62948;BME280;51940;52.126;-0.994;2023-03-14T08:24:13;99160.84;;;2.83;100.00
62948;BME280;51940;52.126;-0.994;2023-03-14T08:26:39;99171.43;;;2.95;100.00
62948;BME280;51940;52.126;-0.994;2023-03-14T08:29:04;99172.02;;;3.03;100.00
62948;BME280;51940;52.126;-0.994;2023-03-14T08:31:29;99176.94;;;3.17;100.00
62948;BME280;51940;52.126;-0.994;2023-03-14T08:33:57;99183.86;;;3.25;100.00
62948;BME280;51940;52.126;-0.994;2023-03-14T08:36:23;99189.59;;;3.32;100.00
62948;BME280;51940;52.126;-0.994;2023-03-14T08:38:48;99199.67;;;3.41;100.00
62948;BME280;51940;52.126;-0.994;2023-03-14T08:41:13;99207.70;;;3.47;100.00
62948;BME280;51940;52.126;-0.994;2023-03-14T08:43:39;99216.67;;;3.48;100.00
62948;BME280;51940;52.126;-0.994;2023-03-14T08:46:04;99216.35;;;3.47;100.00
62948;BME280;51940;52.126;-0.994;2023-03-14T08:48:29;99226.77;;;3.45;100.00
62948;BME280;51940;52.126;-0.994;2023-03-14T08:51:05;99239.04;;;3.49;100.00
62948;BME280;51940;52.126;-0.994;2023-03-14T08:53:30;99250.03;;;3.57;100.00
62948;BME280;51940;52.126;-0.994;2023-03-14T08:55:56;99256.96;;;3.66;100.00
62948;BME280;51940;52.126;-0.994;2023-03-14T08:58:22;99267.69;;;3.80;100.00
62948;BME280;51940;52.126;-0.994;2023-03-14T09:00:49;99279.12;;;3.94;100.00
62948;BME280;51940;52.126;-0.994;2023-03-14T09:03:14;99284.61;;;4.04;100.00
62948;BME280;51940;52.126;-0.994;2023-03-14T09:05:39;99284.88;;;4.09;100.00
62948;BME280;51940;52.126;-0.994;2023-03-14T09:08:05;99299.24;;;4.16;100.00
62948;BME280;51940;52.126;-0.994;2023-03-14T09:10:30;99300.55;;;4.23;100.00
62948;BME280;51940;52.126;-0.994;2023-03-14T09:12:55;99303.08;;;4.30;100.00
62948;BME280;51940;52.126;-0.994;2023-03-14T09:15:22;99308.27;;;4.35;100.00
62948;BME280;51940;52.126;-0.994;2023-03-14T09:17:47;99315.02;;;4.44;100.00
62948;BME280;51940;52.126;-0.994;2023-03-14T09:20:13;99322.20;;;4.58;100.00
62948;BME280;51940;52.126;-0.994;2023-03-14T09:22:39;99331.41;;;4.77;100.00
62948;BME280;51940;52.126;-0.994;2023-03-14T09:25:04;99342.10;;;4.91;100.00
62948;BME280;51940;52.126;-0.994;2023-03-14T09:27:30;99339.90;;;4.96;100.00
62948;BME280;51940;52.126;-0.994;2023-03-14T09:29:55;99344.66;;;4.97;100.00
62948;BME280;51940;52.126;-0.994;2023-03-14T09:32:20;99348.77;;;4.94;100.00
62948;BME280;51940;52.126;-0.994;2023-03-14T09:34:45;99349.24;;;4.87;100.00
62948;BME280;51940;52.126;-0.994;2023-03-14T09:37:11;99349.39;;;4.79;100.00
62948;BME280;51940;52.126;-0.994;2023-03-14T09:39:37;99360.41;;;4.85;100.00
62948;BME280;51940;52.126;-0.994;2023-03-14T09:42:03;99362.05;;;4.82;100.00
62948;BME280;51940;52.126;-0.994;2023-03-14T09:44:34;99370.98;;;4.88;100.00
62948;BME280;51940;52.126;-0.994;2023-03-14T09:47:06;99374.11;;;4.99;100.00
62948;BME280;51940;52.126;-0.994;2023-03-14T09:49:33;99377.34;;;5.07;100.00
62948;BME280;51940;52.126;-0.994;2023-03-14T09:52:05;99389.20;;;4.96;100.00
62948;BME280;51940;52.126;-0.994;2023-03-14T09:54:39;99387.80;;;4.85;100.00
62948;BME280;51940;52.126;-0.994;2023-03-14T09:57:10;99395.45;;;4.82;100.00
62948;BME280;51940;52.126;-0.994;2023-03-14T09:59:37;99403.83;;;4.87;100.00
62948;BME280;51940;52.126;-0.994;2023-03-14T10:02:11;99414.35;;;5.02;100.00
62948;BME280;51940;52.126;-0.994;2023-03-14T10:04:37;99427.20;;;5.16;100.00
62948;BME280;51940;52.126;-0.994;2023-03-14T10:07:07;99434.87;;;5.22;100.00
62948;BME280;51940;52.126;-0.994;2023-03-14T10:09:34;99442.88;;;5.28;100.00
62948;BME280;51940;52.126;-0.994;2023-03-14T10:12:00;99445.64;;;5.23;100.00
62948;BME280;51940;52.126;-0.994;2023-03-14T10:14:30;99453.48;;;5.19;100.00
62948;BME280;51940;52.126;-0.994;2023-03-14T10:16:59;99461.61;;;5.29;100.00
62948;BME280;51940;52.126;-0.994;2023-03-14T10:19:29;99469.17;;;5.41;100.00
62948;BME280;51940;52.126;-0.994;2023-03-14T10:21:54;99475.44;;;5.46;100.00
62948;BME280;51940;52.126;-0.994;2023-03-14T10:24:27;99490.81;;;5.47;100.00
62948;BME280;51940;52.126;-0.994;2023-03-14T10:26:54;99492.05;;;5.47;100.00
62948;BME280;51940;52.126;-0.994;2023-03-14T10:29:20;99492.75;;;5.47;100.00
62948;BME280;51940;52.126;-0.994;2023-03-14T10:32:06;99499.28;;;5.57;100.00
62948;BME280;51940;52.126;-0.994;2023-03-14T10:34:33;99499.20;;;5.72;100.00
62948;BME280;51940;52.126;-0.994;2023-03-14T10:42:16;99509.67;;;6.08;100.00
62948;BME280;51940;52.126;-0.994;2023-03-14T10:44:44;99515.96;;;6.21;100.00
62948;BME280;51940;52.126;-0.994;2023-03-14T10:47:21;99519.96;;;6.33;100.00
62948;BME280;51940;52.126;-0.994;2023-03-14T10:49:47;99521.08;;;6.47;100.00
62948;BME280;51940;52.126;-0.994;2023-03-14T10:54:38;99536.49;;;6.63;100.00
62948;BME280;51940;52.126;-0.994;2023-03-14T10:57:04;99533.79;;;6.49;100.00
62948;BME280;51940;52.126;-0.994;2023-03-14T10:59:34;99529.96;;;6.38;100.00
62948;BME280;51940;52.126;-0.994;2023-03-14T11:02:07;99539.36;;;6.28;100.00
62948;BME280;51940;52.126;-0.994;2023-03-14T11:04:53;99547.02;;;6.34;100.00
62948;BME280;51940;52.126;-0.994;2023-03-14T11:15:25;99570.15;;;6.72;100.00
62948;BME280;51940;52.126;-0.994;2023-03-14T11:30:35;99613.66;;;6.67;100.00
62948;BME280;51940;52.126;-0.994;2023-03-14T11:35:45;99633.54;;;6.83;100.00
62948;BME280;51940;52.126;-0.994;2023-03-14T11:40:43;99630.02;;;6.90;100.00
62948;BME280;51940;52.126;-0.994;2023-03-14T11:45:39;99629.51;;;6.97;100.00
62948;BME280;51940;52.126;-0.994;2023-03-14T11:50:50;99629.10;;;6.91;100.00
62948;BME280;51940;52.126;-0.994;2023-03-14T11:53:33;99627.81;;;6.86;100.00
62948;BME280;51940;52.126;-0.994;2023-03-14T11:55:59;99634.22;;;6.85;100.00
62948;BME280;51940;52.126;-0.994;2023-03-14T11:58:27;99633.08;;;6.88;100.00
62948;BME280;51940;52.126;-0.994;2023-03-14T12:01:11;99631.15;;;6.95;100.00
62948;BME280;51940;52.126;-0.994;2023-03-14T12:04:13;99641.49;;;7.00;100.00
62948;BME280;51940;52.126;-0.994;2023-03-14T12:06:36;99640.41;;;7.02;100.00
62948;BME280;51940;52.126;-0.994;2023-03-14T12:09:05;99645.44;;;7.06;100.00
62948;BME280;51940;52.126;-0.994;2023-03-14T12:14:03;99647.70;;;7.16;100.00
62948;BME280;51940;52.126;-0.994;2023-03-14T12:16:32;99648.80;;;7.23;100.00
62948;BME280;51940;52.126;-0.994;2023-03-14T12:19:13;99654.23;;;7.34;100.00
62948;BME280;51940;52.126;-0.994;2023-03-14T12:24:30;99657.95;;;7.34;100.00
62948;BME280;51940;52.126;-0.994;2023-03-14T12:26:58;99665.34;;;7.21;100.00
62948;BME280;51940;52.126;-0.994;2023-03-14T12:29:23;99674.02;;;7.13;100.00
62948;BME280;51940;52.126;-0.994;2023-03-14T12:32:21;99681.30;;;7.04;100.00
62948;BME280;51940;52.126;-0.994;2023-03-14T12:34:43;99682.63;;;7.00;100.00
62948;BME280;51940;52.126;-0.994;2023-03-14T12:37:19;99677.64;;;7.09;100.00
62948;BME280;51940;52.126;-0.994;2023-03-14T12:40:09;99679.32;;;7.31;100.00
62948;BME280;51940;52.126;-0.994;2023-03-14T12:42:59;99686.02;;;7.48;100.00
62948;BME280;51940;52.126;-0.994;2023-03-14T12:45:43;99689.20;;;7.63;100.00
62948;BME280;51940;52.126;-0.994;2023-03-14T12:48:22;99687.67;;;7.83;100.00
62948;BME280;51940;52.126;-0.994;2023-03-14T12:50:55;99694.67;;;7.87;100.00
62948;BME280;51940;52.126;-0.994;2023-03-14T13:01:18;99698.79;;;8.08;100.00
62948;BME280;51940;52.126;-0.994;2023-03-14T13:06:09;99697.11;;;7.97;100.00
62948;BME280;51940;52.126;-0.994;2023-03-14T13:11:01;99694.80;;;7.89;100.00
62948;BME280;51940;52.126;-0.994;2023-03-14T13:13:26;99694.02;;;7.99;100.00
62948;BME280;51940;52.126;-0.994;2023-03-14T13:15:56;99699.45;;;8.02;100.00
62948;BME280;51940;52.126;-0.994;2023-03-14T13:18:45;99701.08;;;8.01;100.00
62948;BME280;51940;52.126;-0.994;2023-03-14T13:21:13;99701.45;;;8.00;100.00
62948;BME280;51940;52.126;-0.994;2023-03-14T13:23:40;99708.98;;;8.05;100.00
62948;BME280;51940;52.126;-0.994;2023-03-14T13:26:14;99703.46;;;7.98;100.00
62948;BME280;51940;52.126;-0.994;2023-03-14T13:28:40;99705.02;;;7.92;100.00
62948;BME280;51940;52.126;-0.994;2023-03-14T13:31:15;99704.59;;;7.88;100.00
62948;BME280;51940;52.126;-0.994;2023-03-14T13:33:44;99711.52;;;7.80;100.00
62948;BME280;51940;52.126;-0.994;2023-03-14T13:36:09;99708.95;;;7.77;100.00
62948;BME280;51940;52.126;-0.994;2023-03-14T13:38:35;99708.77;;;7.91;100.00
62948;BME280;51940;52.126;-0.994;2023-03-14T13:41:03;99704.38;;;8.11;100.00
62948;BME280;51940;52.126;-0.994;2023-03-14T13:43:33;99709.86;;;8.26;100.00
62948;BME280;51940;52.126;-0.994;2023-03-14T13:48:27;99710.16;;;8.28;100.00
62948;BME280;51940;52.126;-0.994;2023-03-14T13:51:01;99714.54;;;8.30;100.00
62948;BME280;51940;52.126;-0.994;2023-03-14T13:53:28;99705.10;;;8.40;100.00
62948;BME280;51940;52.126;-0.994;2023-03-14T13:55:53;99702.77;;;8.47;100.00